Time;durP1;ratioP1;P1;durP2;ratioP2;P2;SDS_P1;SDS_P2;PMS_P1;PMS_P2;Temp;Humidity;BMP_temperature;BMP_pressure;BME280_temperature;BME280_humidity;BME280_pressure;Samples;Min_cycle;Max_cycle;Signal;HPM_P1;HPM_P2
2022/12/21 00:01:21;;;;;;;104.85;27.48;;;7.40;99.90;;;;;;5114836;27;20475;-62
2022/12/21 00:03:52;;;;;;;99.80;25.25;;;7.40;99.90;;;;;;5113237;27;20047;-63
2022/12/21 00:06:19;;;;;;;224.35;38.92;;;7.40;99.90;;;;;;5113648;27;20229;-62
2022/12/21 00:08:48;;;;;;;172.85;28.77;;;7.40;99.90;;;;;;5114784;27;20040;-63
2022/12/21 00:11:16;;;;;;;284.13;38.25;;;7.30;99.90;;;;;;5114114;27;20126;-62
2022/12/21 00:13:44;;;;;;;367.58;57.08;;;7.30;99.90;;;;;;5096072;27;20062;-62
2022/12/21 00:16:13;;;;;;;172.50;33.08;;;7.30;99.90;;;;;;5095764;27;20043;-62
2022/12/21 00:18:40;;;;;;;259.10;45.20;;;7.20;99.90;;;;;;5096140;28;20043;-62
2022/12/21 00:21:09;;;;;;;274.85;34.30;;;7.20;99.90;;;;;;5131601;27;20483;-62
2022/12/21 00:23:37;;;;;;;298.50;39.42;;;7.20;99.90;;;;;;5113735;27;20107;-63
2022/12/21 00:26:07;;;;;;;180.57;27.48;;;7.20;99.90;;;;;;5113761;27;20105;-63
2022/12/21 00:28:34;;;;;;;294.00;36.63;;;7.20;99.90;;;;;;5114884;27;20119;-63
2022/12/21 00:31:06;;;;;;;245.82;33.63;;;7.10;99.90;;;;;;5113675;27;20051;-63
2022/12/21 00:33:33;;;;;;;220.95;29.42;;;7.10;99.90;;;;;;5133672;27;20047;-62
2022/12/21 00:36:00;;;;;;;281.58;39.45;;;7.10;99.90;;;;;;5114843;27;20042;-63
2022/12/21 00:38:27;;;;;;;274.42;34.53;;;7.10;99.90;;;;;;5095902;27;20059;-63
2022/12/21 00:40:57;;;;;;;189.95;32.55;;;7.10;99.90;;;;;;5110884;27;20130;-63
2022/12/21 00:43:26;;;;;;;302.02;37.45;;;7.10;99.90;;;;;;5133469;27;20415;-63
2022/12/21 00:45:52;;;;;;;287.95;33.55;;;7.10;99.90;;;;;;5113409;27;20051;-63
2022/12/21 00:48:19;;;;;;;240.48;34.13;;;7.10;99.90;;;;;;5133241;27;20103;-63
2022/12/21 00:50:47;;;;;;;236.93;29.83;;;7.00;99.90;;;;;;5113947;27;20058;-63
2022/12/21 00:53:15;;;;;;;422.92;59.40;;;7.00;99.90;;;;;;5132504;27;20043;-63
2022/12/21 00:55:41;;;;;;;236.80;36.45;;;7.00;99.90;;;;;;5133041;27;20050;-63
2022/12/21 00:58:08;;;;;;;220.65;27.50;;;7.00;99.90;;;;;;5112916;27;20054;-62
2022/12/21 01:00:37;;;;;;;164.65;28.00;;;7.00;99.90;;;;;;5112812;27;20047;-62
2022/12/21 01:03:03;;;;;;;174.52;23.58;;;6.90;99.90;;;;;;5132917;27;20793;-63
2022/12/21 01:05:32;;;;;;;200.95;24.77;;;6.90;99.90;;;;;;5112179;28;20051;-62
2022/12/21 01:07:59;;;;;;;138.20;23.63;;;6.90;99.90;;;;;;5132604;27;20107;-63
2022/12/21 01:10:26;;;;;;;196.15;23.60;;;6.90;99.90;;;;;;5113256;27;20043;-63
2022/12/21 01:12:53;;;;;;;221.80;34.05;;;7.10;99.90;;;;;;5132426;27;20039;-63
2022/12/21 01:15:19;;;;;;;188.30;23.50;;;6.80;99.90;;;;;;5113933;27;20054;-63
2022/12/21 01:17:48;;;;;;;147.13;23.60;;;6.80;99.90;;;;;;5132704;27;20525;-63
2022/12/21 01:20:15;;;;;;;172.85;21.77;;;6.80;99.90;;;;;;5111102;27;20047;-63
2022/12/21 01:22:41;;;;;;;161.15;21.65;;;6.80;99.90;;;;;;5132980;27;20083;-63
2022/12/21 01:25:09;;;;;;;160.70;24.10;;;6.70;99.90;;;;;;5112201;28;20445;-62
2022/12/21 01:27:36;;;;;;;142.45;22.95;;;6.80;99.90;;;;;;5112887;27;20134;-63
2022/12/21 01:30:03;;;;;;;129.02;19.83;;;6.70;99.90;;;;;;5112168;27;20036;-63
2022/12/21 01:32:30;;;;;;;118.68;19.75;;;6.70;99.90;;;;;;5132555;27;20050;-63
2022/12/21 01:34:58;;;;;;;129.90;20.38;;;6.70;99.90;;;;;;5112234;27;20430;-63
2022/12/21 01:37:25;;;;;;;213.98;31.88;;;6.60;99.90;;;;;;5132566;27;20463;-63
2022/12/21 01:39:52;;;;;;;126.72;22.70;;;6.60;99.90;;;;;;5132311;27;20047;-63
2022/12/21 01:42:19;;;;;;;123.97;18.17;;;6.60;99.90;;;;;;5112613;28;20051;-63
2022/12/21 01:45:00;;;;;;;176.48;27.48;;;6.60;99.90;;;;;;5112943;28;20442;-64
2022/12/21 01:47:31;;;;;;;115.75;22.40;;;6.60;99.90;;;;;;5129381;27;20047;-62
2022/12/21 01:50:02;;;;;;;114.13;20.40;;;6.50;99.90;;;;;;5132395;28;20054;-63
2022/12/21 01:52:29;;;;;;;;;;;6.60;99.90;;;;;;5133151;28;20392;-63
2022/12/21 01:55:01;;;;;;;131.43;20.20;;;6.60;99.90;;;;;;5094211;28;19920;-62
2022/12/21 01:57:32;;;;;;;84.05;17.83;;;6.60;99.90;;;;;;5094382;28;20491;-61
2022/12/21 02:00:01;;;;;;;149.85;21.38;;;6.60;99.90;;;;;;5094274;28;20047;-62
2022/12/21 02:02:34;;;;;;;157.73;26.58;;;6.50;99.90;;;;;;5112543;28;20050;-62
2022/12/21 02:05:10;;;;;;;139.02;20.25;;;6.70;99.90;;;;;;5112985;28;20459;-62
2022/12/21 02:07:38;;;;;;;121.55;21.30;;;6.50;99.90;;;;;;5112879;28;20050;-63
2022/12/21 02:10:07;;;;;;;119.47;20.48;;;6.50;99.90;;;;;;5093845;28;20054;-63
2022/12/21 02:12:37;;;;;;;154.90;25.35;;;6.50;99.90;;;;;;5119118;28;20043;-63
2022/12/21 02:15:04;;;;;;;174.57;25.42;;;6.50;99.90;;;;;;5112522;28;20052;-63
2022/12/21 02:17:40;;;;;;;182.60;32.13;;;6.50;99.90;;;;;;5111253;28;20047;-63
2022/12/21 02:20:51;;;;;;;89.30;17.17;;;6.50;99.90;;;;;;5110552;28;20047;-63
2022/12/21 02:24:08;;;;;;;176.32;21.20;;;6.50;99.90;;;;;;5112051;28;20066;-63
2022/12/21 02:26:50;;;;;;;190.30;20.30;;;6.40;99.90;;;;;;5109542;28;20126;-63
2022/12/21 02:30:03;;;;;;;168.70;19.27;;;6.40;99.90;;;;;;5107799;28;20495;-62
2022/12/21 02:32:39;;;;;;;154.45;18.40;;;6.40;99.90;;;;;;5112828;28;20388;-63
2022/12/21 02:35:14;;;;;;;109.15;17.35;;;6.40;99.90;;;;;;5112912;28;20055;-63
2022/12/21 02:37:44;;;;;;;142.65;19.58;;;6.30;99.90;;;;;;5112851;27;20054;-63
2022/12/21 02:40:19;;;;;;;87.35;15.85;;;6.30;99.90;;;;;;5116500;27;20376;-62
2022/12/21 02:45:44;;;;;;;138.93;19.33;;;6.20;99.90;;;;;;5135036;27;20043;-63
2022/12/21 02:48:17;;;;;;;182.50;20.63;;;6.30;99.90;;;;;;5116361;27;20247;-64
2022/12/21 02:50:48;;;;;;;146.63;19.60;;;6.20;99.90;;;;;;5134922;27;20096;-63
2022/12/21 02:53:18;;;;;;;225.10;23.50;;;6.20;99.90;;;;;;5135688;27;20483;-62
2022/12/21 02:55:46;;;;;;;203.02;23.15;;;6.20;99.90;;;;;;5097883;27;20058;-63
2022/12/21 02:58:16;;;;;;;169.57;22.90;;;6.10;99.90;;;;;;5115316;27;20047;-63
2022/12/21 03:00:56;;;;;;;153.32;18.45;;;6.10;99.90;;;;;;5116206;27;20047;-64
2022/12/21 03:03:48;;;;;;;189.77;20.93;;;6.10;99.90;;;;;;5097967;28;20073;-63
2022/12/21 03:06:30;;;;;;;167.63;19.40;;;6.10;99.90;;;;;;5115350;27;20059;-63
2022/12/21 03:09:06;;;;;;;94.15;15.57;;;6.10;99.90;;;;;;5097768;28;20104;-63
2022/12/21 03:11:47;;;;;;;151.75;18.63;;;6.00;99.90;;;;;;5115987;27;20043;-63
2022/12/21 03:14:17;;;;;;;;;;;6.10;99.90;;;;;;5098232;27;20133;-63
2022/12/21 03:16:49;;;;;;;184.23;18.63;;;6.00;99.90;;;;;;5097134;28;19997;-63
2022/12/21 03:19:24;;;;;;;114.35;15.45;;;6.00;99.90;;;;;;5115514;27;20131;-63
2022/12/21 03:21:57;;;;;;;170.85;21.90;;;6.00;99.90;;;;;;5115864;28;20052;-64
2022/12/21 03:24:27;;;;;;;178.50;21.75;;;6.00;99.90;;;;;;5112068;27;20040;-63
2022/12/21 03:26:57;;;;;;;160.13;17.13;;;6.00;99.90;;;;;;5134130;27;20122;-64
2022/12/21 03:29:30;;;;;;;163.73;15.45;;;5.90;99.90;;;;;;5134812;27;20089;-63
2022/12/21 03:32:05;;;;;;;140.25;16.48;;;5.90;99.90;;;;;;5115322;27;20196;-63
2022/12/21 03:34:36;;;;;;;126.47;14.48;;;5.90;99.90;;;;;;5134550;27;20408;-63
2022/12/21 03:37:07;;;;;;;131.60;14.68;;;5.90;99.90;;;;;;5134625;27;20043;-63
2022/12/21 03:39:39;;;;;;;98.20;14.13;;;5.80;99.90;;;;;;5115309;27;20448;-63
2022/12/21 03:42:10;;;;;;;124.78;15.00;;;5.80;99.90;;;;;;5114668;27;20458;-63
2022/12/21 03:44:42;;;;;;;119.15;13.95;;;5.80;99.90;;;;;;5096836;28;20100;-63
2022/12/21 03:47:14;;;;;;;123.45;13.50;;;5.70;99.90;;;;;;5095942;28;20055;-62
2022/12/21 03:49:46;;;;;;;161.18;18.73;;;5.70;99.90;;;;;;5096272;27;20056;-63
2022/12/21 03:52:17;;;;;;;178.73;18.98;;;5.70;99.90;;;;;;5096815;27;20052;-62
2022/12/21 03:54:49;;;;;;;156.35;14.40;;;5.70;99.90;;;;;;5114608;27;20100;-62
2022/12/21 03:57:18;;;;;;;109.95;15.70;;;5.80;99.90;;;;;;5096552;28;20051;-63
2022/12/21 03:59:49;;;;;;;184.60;21.27;;;5.80;99.90;;;;;;5096836;28;20043;-63
2022/12/21 04:02:23;;;;;;;116.15;15.80;;;5.80;99.90;;;;;;5096041;27;20507;-62
2022/12/21 04:04:57;;;;;;;113.82;16.60;;;5.80;99.90;;;;;;5096381;27;20043;-63
2022/12/21 04:07:27;;;;;;;134.23;19.17;;;5.80;99.90;;;;;;5096332;27;20051;-63
2022/12/21 04:09:59;;;;;;;186.93;26.30;;;5.90;99.90;;;;;;5095826;28;20047;-64
2022/12/21 04:12:39;;;;;;;120.10;19.70;;;5.90;99.90;;;;;;5096332;27;20134;-64
2022/12/21 04:15:09;;;;;;;113.40;19.40;;;5.90;99.90;;;;;;5095881;28;20078;-63
2022/12/21 04:17:37;;;;;;;100.82;16.45;;;5.90;99.90;;;;;;5114626;27;20376;-62
2022/12/21 04:20:06;;;;;;;161.10;20.00;;;5.90;99.90;;;;;;5096368;28;20044;-63
2022/12/21 04:28:11;;;;;;;125.40;16.25;;;5.90;99.90;;;;;;5114483;27;20044;-61
2022/12/21 04:30:40;;;;;;;129.07;15.55;;;5.80;99.90;;;;;;5113828;27;20043;-62
2022/12/21 04:33:09;;;;;;;90.97;13.95;;;5.80;99.90;;;;;;5114445;28;20446;-63
2022/12/21 04:37:30;;;;;;;143.45;18.67;;;5.80;99.90;;;;;;5096132;28;20509;-63
2022/12/21 04:38:24;;;;;;;124.47;16.80;;;5.80;99.90;;;;;;5110705;27;20120;-63
2022/12/21 04:40:52;;;;;;;137.80;17.92;;;5.90;99.90;;;;;;5114624;27;20070;-63
2022/12/21 04:43:19;;;;;;;129.70;17.20;;;5.80;99.90;;;;;;5128929;27;20055;-63
2022/12/21 04:45:46;;;;;;;90.47;14.20;;;5.80;99.90;;;;;;5095065;27;20043;-63
2022/12/21 04:48:13;;;;;;;145.18;21.92;;;5.80;99.90;;;;;;5097232;27;20383;-64
2022/12/21 04:50:42;;;;;;;136.60;16.00;;;5.70;99.90;;;;;;5098135;27;20039;-64
2022/12/21 04:53:09;;;;;;;101.53;14.60;;;5.70;99.90;;;;;;5111953;28;20380;-64
2022/12/21 04:55:36;;;;;;;113.63;18.10;;;5.70;99.90;;;;;;5101920;28;20093;-63
2022/12/21 04:58:03;;;;;;;121.60;15.07;;;5.70;99.90;;;;;;5098492;28;20112;-64
2022/12/21 05:00:30;;;;;;;158.95;18.85;;;5.70;99.90;;;;;;5099935;28;20039;-64
2022/12/21 05:02:57;;;;;;;103.10;15.88;;;5.70;99.90;;;;;;5095948;28;20044;-64
2022/12/21 05:05:23;;;;;;;114.05;15.52;;;5.70;99.90;;;;;;5098259;28;20102;-63
2022/12/21 05:07:52;;;;;;;129.80;19.15;;;5.70;99.90;;;;;;5111616;27;20051;-65
2022/12/21 05:10:19;;;;;;;142.50;19.63;;;5.70;99.90;;;;;;5098678;28;20044;-64
2022/12/21 05:12:46;;;;;;;125.93;15.00;;;5.70;99.90;;;;;;5099193;28;20055;-63
2022/12/21 05:15:13;;;;;;;126.07;15.73;;;5.80;99.90;;;;;;5100083;27;20043;-63
2022/12/21 05:17:40;;;;;;;139.93;16.25;;;5.80;99.90;;;;;;5098999;28;20109;-63
2022/12/21 05:20:08;;;;;;;121.45;17.00;;;5.80;99.90;;;;;;5098212;28;20040;-63
2022/12/21 05:22:35;;;;;;;136.05;16.50;;;5.80;99.90;;;;;;5097650;28;20062;-63
2022/12/21 05:25:03;;;;;;;138.70;17.63;;;5.80;99.90;;;;;;5111313;27;20043;-63
2022/12/21 05:27:30;;;;;;;115.30;17.38;;;5.80;99.90;;;;;;5114939;27;20050;-63
2022/12/21 05:29:57;;;;;;;117.18;15.80;;;5.80;99.90;;;;;;5109198;28;20417;-63
2022/12/21 05:32:24;;;;;;;152.50;16.08;;;5.80;99.90;;;;;;5096399;28;21518;-63
2022/12/21 05:34:51;;;;;;;126.15;15.20;;;5.80;99.90;;;;;;5099423;27;20051;-63
2022/12/21 05:37:17;;;;;;;119.78;17.98;;;5.80;99.90;;;;;;5115680;27;20051;-62
2022/12/21 05:39:44;;;;;;;112.53;15.07;;;5.80;99.90;;;;;;5096911;28;20055;-63
2022/12/21 05:42:13;;;;;;;142.02;15.18;;;5.80;99.90;;;;;;5111549;28;20464;-62
2022/12/21 05:44:40;;;;;;;124.97;15.27;;;5.80;99.90;;;;;;5094053;27;20048;-62
2022/12/21 05:47:06;;;;;;;101.47;15.20;;;5.70;99.90;;;;;;5110660;28;20456;-62
2022/12/21 05:49:33;;;;;;;94.50;12.85;;;5.60;99.90;;;;;;5092706;28;20120;-62
2022/12/21 05:52:00;;;;;;;76.50;11.45;;;5.60;99.90;;;;;;5092924;28;20062;-62
2022/12/21 05:54:27;;;;;;;83.40;11.75;;;5.60;99.90;;;;;;5111413;28;20400;-63
2022/12/21 05:56:54;;;;;;;97.43;12.23;;;5.60;99.90;;;;;;5111614;28;20105;-63
2022/12/21 05:59:22;;;;;;;95.38;12.98;;;5.60;99.90;;;;;;5111397;28;20429;-63
2022/12/21 06:01:49;;;;;;;90.32;12.70;;;5.60;99.90;;;;;;5095206;28;20135;-64
2022/12/21 06:04:16;;;;;;;122.22;13.60;;;5.60;99.90;;;;;;5101486;28;20061;-62
2022/12/21 06:06:45;;;;;;;110.55;15.65;;;5.60;99.90;;;;;;5099964;28;20116;-63
2022/12/21 06:09:12;;;;;;;133.52;16.92;;;5.60;99.90;;;;;;5093701;28;20517;-63
2022/12/21 06:11:39;;;;;;;154.40;16.52;;;5.60;99.90;;;;;;5117550;28;20043;-62
2022/12/21 06:14:06;;;;;;;114.32;13.15;;;5.50;99.90;;;;;;5116280;27;20040;-62
2022/12/21 06:16:34;;;;;;;114.68;15.68;;;5.50;99.90;;;;;;5116557;27;20592;-62
2022/12/21 06:19:01;;;;;;;132.18;15.38;;;5.50;99.90;;;;;;5096924;28;20062;-62
2022/12/21 06:21:28;;;;;;;126.80;15.68;;;5.50;99.90;;;;;;5096839;28;20503;-62
2022/12/21 06:23:55;;;;;;;96.13;13.48;;;5.50;99.90;;;;;;5096450;28;20047;-63
2022/12/21 06:26:22;;;;;;;134.75;16.15;;;5.50;99.90;;;;;;5096444;28;20078;-63
2022/12/21 06:28:50;;;;;;;105.35;15.43;;;5.50;99.90;;;;;;5114363;27;20054;-63
2022/12/21 06:31:17;;;;;;;151.43;17.80;;;5.50;99.90;;;;;;5115115;27;20552;-63
2022/12/21 06:33:45;;;;;;;91.28;13.27;;;5.50;99.90;;;;;;5116570;27;20562;-63
2022/12/21 06:36:13;;;;;;;80.03;13.00;;;5.50;99.90;;;;;;5096249;28;20043;-62
2022/12/21 06:38:40;;;;;;;126.10;17.27;;;5.50;99.90;;;;;;5083681;28;20569;-63
2022/12/21 06:41:09;;;;;;;140.88;17.67;;;5.50;99.90;;;;;;5074640;28;20041;-63
2022/12/21 06:43:38;;;;;;;101.45;14.88;;;5.50;99.90;;;;;;5072804;28;20059;-63
2022/12/21 06:46:06;;;;;;;97.40;17.08;;;5.50;99.90;;;;;;5073238;28;20139;-63
2022/12/21 06:48:35;;;;;;;69.72;13.68;;;5.50;99.90;;;;;;5072757;28;20500;-63
2022/12/21 06:51:06;;;;;;;105.57;16.33;;;5.50;99.90;;;;;;5079147;28;20040;-63
2022/12/21 06:53:35;;;;;;;50.15;13.52;;;5.60;99.90;;;;;;5080036;28;20086;-63
2022/12/21 06:56:04;;;;;;;96.15;14.45;;;5.60;99.90;;;;;;5073356;28;20484;-62
2022/12/21 06:58:31;;;;;;;87.75;15.07;;;5.60;99.90;;;;;;5072507;28;20078;-62
2022/12/21 07:01:04;;;;;;;107.15;15.13;;;5.60;99.90;;;;;;5074171;28;20101;-62
2022/12/21 07:03:31;;;;;;;99.28;16.23;;;5.60;99.90;;;;;;5074274;28;20127;-62
2022/12/21 07:05:58;;;;;;;96.10;15.43;;;5.60;99.90;;;;;;5074833;28;20060;-63
2022/12/21 07:08:27;;;;;;;103.60;16.23;;;5.60;99.90;;;;;;5074778;28;20442;-62
2022/12/21 07:10:57;;;;;;;99.93;15.48;;;5.60;99.90;;;;;;5092907;28;20483;-62
2022/12/21 07:13:25;;;;;;;75.15;13.60;;;5.60;99.90;;;;;;5093153;28;20056;-62
2022/12/21 07:15:52;;;;;;;101.30;14.05;;;5.60;99.90;;;;;;5093101;28;20052;-63
2022/12/21 07:18:19;;;;;;;84.78;13.50;;;5.60;99.90;;;;;;5073204;28;20056;-63
2022/12/21 07:20:46;;;;;;;56.85;14.50;;;5.50;99.90;;;;;;5074002;28;20048;-63
2022/12/21 07:23:13;;;;;;;80.30;13.63;;;5.50;99.90;;;;;;5074449;28;20196;-63
2022/12/21 07:25:42;;;;;;;87.75;14.13;;;5.60;99.90;;;;;;5080563;28;20067;-63
2022/12/21 07:28:09;;;;;;;73.03;15.15;;;5.60;99.90;;;;;;5075378;28;20048;-63
2022/12/21 07:30:35;;;;;;;71.22;14.73;;;5.60;99.90;;;;;;5092622;28;20071;-62
2022/12/21 07:33:02;;;;;;;91.35;14.50;;;5.60;99.90;;;;;;5085997;28;20049;-63
2022/12/21 07:35:29;;;;;;;116.22;16.83;;;5.60;99.90;;;;;;5073497;28;20501;-63
2022/12/21 07:37:56;;;;;;;91.47;17.40;;;5.70;99.90;;;;;;5073887;28;20573;-62
2022/12/21 07:40:23;;;;;;;89.35;17.48;;;5.70;99.90;;;;;;5072845;28;20060;-62
2022/12/21 07:42:51;;;;;;;63.72;15.13;;;5.70;99.90;;;;;;5088276;28;20044;-62
2022/12/21 07:45:18;;;;;;;92.97;17.98;;;5.70;99.90;;;;;;5092440;28;20523;-61
2022/12/21 07:47:47;;;;;;;67.45;15.85;;;5.80;99.90;;;;;;5091489;28;20094;-61
2022/12/21 07:50:14;;;;;;;53.50;16.10;;;5.80;99.90;;;;;;5093690;28;20040;-61
2022/12/21 07:52:41;;;;;;;75.03;16.35;;;5.90;99.90;;;;;;5081435;28;20071;-61
2022/12/21 07:55:09;;;;;;;59.35;17.27;;;5.90;99.90;;;;;;5072043;28;20123;-62
2022/12/21 07:57:36;;;;;;;75.68;19.10;;;5.90;99.90;;;;;;5073800;28;20041;-62
2022/12/21 08:00:06;;;;;;;51.55;19.55;;;6.00;99.90;;;;;;5089241;28;20052;-62
2022/12/21 08:02:32;;;;;;;68.73;19.20;;;6.00;99.90;;;;;;5092160;28;20048;-62
2022/12/21 08:05:00;;;;;;;94.25;27.25;;;6.10;99.90;;;;;;5091854;28;20051;-62
2022/12/21 08:07:27;;;;;;;61.58;21.02;;;6.10;99.90;;;;;;5091041;28;20055;-63
2022/12/21 08:09:53;;;;;;;66.45;21.92;;;6.10;99.90;;;;;;5092055;28;20104;-63
2022/12/21 08:12:20;;;;;;;62.53;21.55;;;6.10;99.90;;;;;;5091687;28;20044;-64
2022/12/21 08:14:47;;;;;;;61.58;19.40;;;6.10;99.90;;;;;;5091418;28;20105;-63
2022/12/21 08:17:16;;;;;;;48.22;19.65;;;6.10;99.90;;;;;;5072965;28;20416;-63
2022/12/21 08:19:43;;;;;;;58.25;18.98;;;6.10;99.90;;;;;;5072666;28;20122;-63
2022/12/21 08:22:10;;;;;;;71.45;18.80;;;6.10;99.90;;;;;;5072191;28;20546;-63
2022/12/21 08:24:37;;;;;;;60.88;19.20;;;6.10;99.90;;;;;;5072471;28;20075;-62
2022/12/21 08:27:04;;;;;;;94.75;22.63;;;6.10;99.90;;;;;;5073619;28;20496;-63
2022/12/21 08:29:31;;;;;;;94.43;21.55;;;6.10;99.90;;;;;;5071316;28;20498;-64
2022/12/21 08:31:58;;;;;;;57.17;17.77;;;6.10;99.90;;;;;;5073586;28;20131;-64
2022/12/21 08:34:26;;;;;;;87.95;20.75;;;6.10;99.90;;;;;;5091089;28;20075;-64
2022/12/21 08:36:53;;;;;;;67.88;18.60;;;6.10;99.90;;;;;;5091952;28;20048;-64
2022/12/21 08:39:20;;;;;;;82.00;21.20;;;6.10;99.90;;;;;;5123204;27;20047;-63
2022/12/21 08:41:47;;;;;;;90.07;19.92;;;6.10;99.90;;;;;;5114514;27;20062;-63
2022/12/21 08:44:14;;;;;;;74.05;18.85;;;6.10;99.90;;;;;;5113372;27;20383;-63
2022/12/21 08:46:42;;;;;;;58.80;18.67;;;6.10;99.90;;;;;;5111174;27;20118;-64
2022/12/21 08:49:09;;;;;;;55.20;18.38;;;6.10;99.90;;;;;;5109714;28;20402;-63
2022/12/21 08:51:38;;;;;;;63.00;17.63;;;6.20;99.90;;;;;;5104582;27;20044;-64
2022/12/21 08:54:05;;;;;;;74.70;18.83;;;6.20;99.90;;;;;;5102703;27;20047;-64
2022/12/21 08:56:32;;;;;;;68.13;17.85;;;6.30;99.90;;;;;;5123132;27;20047;-63
2022/12/21 08:59:01;;;;;;;60.60;18.83;;;6.40;99.90;;;;;;5102910;28;20048;-64
2022/12/21 09:01:28;;;;;;;54.78;17.60;;;6.40;99.90;;;;;;5100300;27;20131;-63
2022/12/21 09:03:55;;;;;;;40.05;18.33;;;6.50;99.90;;;;;;5118484;27;20062;-63
2022/12/21 09:06:22;;;;;;;47.85;16.63;;;6.50;99.90;;;;;;5117091;27;20055;-64
2022/12/21 09:08:51;;;;;;;39.80;15.90;;;6.60;99.90;;;;;;5103659;27;20074;-63
2022/12/21 09:11:20;;;;;;;33.88;16.65;;;6.60;99.90;;;;;;5103544;27;20047;-63
2022/12/21 09:13:47;;;;;;;34.75;15.75;;;6.60;99.90;;;;;;5103478;27;20062;-63
2022/12/21 09:16:17;;;;;;;45.60;17.92;;;6.70;99.90;;;;;;5102380;27;20048;-63
2022/12/21 09:18:44;;;;;;;36.45;16.70;;;6.80;99.90;;;;;;5121961;27;20088;-63
2022/12/21 09:21:12;;;;;;;31.80;16.40;;;6.80;99.90;;;;;;5120802;27;20130;-63
2022/12/21 09:23:39;;;;;;;41.28;16.73;;;6.90;99.90;;;;;;5123838;27;20131;-62
2022/12/21 09:26:08;;;;;;;34.78;15.35;;;7.00;99.90;;;;;;5122672;27;20570;-64
2022/12/21 09:28:35;;;;;;;36.83;16.15;;;7.00;99.90;;;;;;5104333;28;20060;-63
2022/12/21 09:31:11;;;;;;;35.75;16.67;;;7.10;99.90;;;;;;5104914;27;20515;-64
2022/12/21 09:33:39;;;;;;;36.50;15.88;;;7.00;99.90;;;;;;5101377;27;20510;-63
2022/12/21 09:36:06;;;;;;;34.65;16.17;;;7.10;99.90;;;;;;5104142;27;20058;-63
2022/12/21 09:38:34;;;;;;;29.75;15.10;;;7.10;99.90;;;;;;5122041;27;20187;-63
2022/12/21 09:41:02;;;;;;;29.27;14.68;;;7.20;99.90;;;;;;5119704;27;20066;-63
2022/12/21 09:43:40;;;;;;;31.10;15.95;;;7.20;99.90;;;;;;5100479;28;20063;-64
2022/12/21 09:46:09;;;;;;;36.63;16.60;;;7.20;99.90;;;;;;5101170;27;20075;-63
2022/12/21 09:48:41;;;;;;;29.58;16.50;;;7.30;99.90;;;;;;5102080;28;20055;-64
2022/12/21 09:51:14;;;;;;;34.13;16.55;;;7.20;99.90;;;;;;5102135;28;20059;-64
2022/12/21 09:53:46;;;;;;;30.55;17.23;;;7.20;99.90;;;;;;5119768;28;20039;-64
2022/12/21 09:56:18;;;;;;;35.38;16.45;;;7.20;99.90;;;;;;5103133;28;20043;-64
2022/12/21 09:58:49;;;;;;;32.53;16.27;;;7.20;99.90;;;;;;5100212;28;20055;-64
2022/12/21 10:01:20;;;;;;;33.75;16.10;;;7.30;99.90;;;;;;5120932;28;20087;-64
2022/12/21 10:04:17;;;;;;;35.42;16.02;;;7.40;99.90;;;;;;5122485;28;20474;-63
2022/12/21 10:07:02;;;;;;;34.78;18.38;;;7.40;99.90;;;;;;5103095;28;20050;-65
2022/12/21 10:09:57;;;;;;;35.05;16.30;;;7.50;99.90;;;;;;5101226;28;20096;-64
2022/12/21 10:12:32;;;;;;;35.35;17.05;;;7.50;99.90;;;;;;5119913;28;20502;-63
2022/12/21 10:15:15;;;;;;;37.03;16.42;;;7.70;99.90;;;;;;5102572;28;20449;-63
2022/12/21 10:17:51;;;;;;;33.88;16.45;;;7.70;99.90;;;;;;5119958;28;20047;-63
2022/12/21 10:20:37;;;;;;;30.88;16.88;;;7.80;99.90;;;;;;5122275;28;20406;-63
2022/12/21 10:23:12;;;;;;;33.00;17.77;;;7.90;99.90;;;;;;5100375;28;20088;-63
2022/12/21 10:25:43;;;;;;;41.65;17.48;;;7.80;99.90;;;;;;5102978;28;20096;-63
2022/12/21 10:28:22;;;;;;;34.95;16.15;;;7.90;99.90;;;;;;5119394;28;20452;-64
2022/12/21 10:31:00;;;;;;;32.40;16.55;;;7.90;99.90;;;;;;5120108;28;20051;-64
2022/12/21 10:33:27;;;;;;;33.85;17.73;;;8.00;99.90;;;;;;5121403;28;20062;-64
2022/12/21 10:35:59;;;;;;;37.25;17.33;;;8.10;99.90;;;;;;5101335;28;20051;-63
2022/12/21 10:38:29;;;;;;;29.58;16.15;;;8.30;99.90;;;;;;5102049;28;20051;-63
2022/12/21 10:40:56;;;;;;;29.67;16.13;;;8.50;99.90;;;;;;5121483;28;20043;-63
2022/12/21 10:43:24;;;;;;;30.42;16.70;;;8.40;99.90;;;;;;5122136;28;20047;-63
2022/12/21 10:45:52;;;;;;;31.42;17.70;;;8.50;99.90;;;;;;5122002;28;20047;-63
2022/12/21 10:48:20;;;;;;;35.80;17.23;;;8.50;99.90;;;;;;5103848;28;20040;-63
2022/12/21 10:50:50;;;;;;;34.53;16.90;;;8.40;99.90;;;;;;5122197;28;20509;-63
2022/12/21 10:53:19;;;;;;;31.00;15.55;;;8.30;99.90;;;;;;5101885;28;20452;-64
2022/12/21 10:55:47;;;;;;;25.95;15.57;;;8.50;99.90;;;;;;5102644;28;20055;-64
2022/12/21 10:58:18;;;;;;;33.78;15.93;;;8.80;99.90;;;;;;5122234;27;20054;-63
2022/12/21 11:01:01;;;;;;;28.63;15.05;;;9.10;99.90;;;;;;5105780;27;20073;-63
2022/12/21 11:03:31;;;;;;;25.05;12.75;;;9.20;99.90;;;;;;5122824;27;20100;-63
2022/12/21 11:05:59;;;;;;;27.10;14.13;;;9.20;99.90;;;;;;5105635;27;20528;-63
2022/12/21 11:08:29;;;;;;;23.45;13.68;;;9.50;99.90;;;;;;5106942;27;20452;-63
2022/12/21 11:10:58;;;;;;;27.33;13.03;;;10.20;99.90;;;;;;5104175;27;20120;-63
2022/12/21 11:13:27;;;;;;;28.23;14.98;;;10.90;99.90;;;;;;5105402;27;20048;-63
2022/12/21 11:16:00;;;;;;;19.95;12.48;;;11.60;99.90;;;;;;5124094;27;20047;-63
2022/12/21 11:18:39;;;;;;;20.00;13.13;;;11.80;99.90;;;;;;5123460;27;20055;-63
2022/12/21 11:21:20;;;;;;;24.50;12.30;;;12.30;99.90;;;;;;5106259;27;20058;-64
2022/12/21 11:23:55;;;;;;;24.55;13.38;;;13.10;99.90;;;;;;5123176;27;20392;-64
2022/12/21 11:26:25;;;;;;;20.45;12.60;;;14.00;99.90;;;;;;5106241;27;20051;-63
2022/12/21 11:29:04;;;;;;;22.88;11.63;;;14.40;99.90;;;;;;5125687;27;20434;-63
2022/12/21 11:31:34;;;;;;;20.92;12.07;;;15.00;99.90;;;;;;5103855;27;20055;-63
2022/12/21 11:34:01;;;;;;;20.40;11.90;;;15.30;99.90;;;;;;5099933;27;20043;-63
2022/12/21 11:36:28;;;;;;;20.27;10.88;;;15.50;99.90;;;;;;5098286;27;20478;-63
2022/12/21 11:38:55;;;;;;;19.25;11.63;;;15.50;99.90;;;;;;5087078;28;20052;-64
2022/12/21 11:41:30;;;;;;;21.15;12.68;;;15.80;99.90;;;;;;5088146;28;20052;-63
2022/12/21 11:43:57;;;;;;;22.67;12.15;;;16.00;99.90;;;;;;5090962;28;20059;-63
2022/12/21 11:46:43;;;;;;;21.27;11.57;;;16.20;99.90;;;;;;5084575;28;20072;-64
2022/12/21 11:50:02;;;;;;;23.73;12.50;;;16.30;99.90;;;;;;5083294;28;20040;-64
2022/12/21 11:52:40;;;;;;;20.77;12.07;;;16.70;99.90;;;;;;5089313;28;20045;-64
2022/12/21 11:55:16;;;;;;;19.70;10.88;;;16.50;99.90;;;;;;5083114;28;20408;-64
2022/12/21 11:57:55;;;;;;;20.92;11.50;;;17.10;99.90;;;;;;5081922;28;20048;-64
2022/12/21 12:00:24;;;;;;;20.73;10.82;;;17.30;99.90;;;;;;5081362;28;20056;-63
2022/12/21 12:03:25;;;;;;;20.17;9.77;;;17.60;99.90;;;;;;5089157;28;20082;-65
2022/12/21 12:06:10;;;;;;;19.70;10.82;;;17.70;99.90;;;;;;5081289;28;21003;-64
2022/12/21 12:08:53;;;;;;;19.17;11.18;;;16.90;99.90;;;;;;5083364;28;20205;-64
2022/12/21 12:11:32;;;;;;;20.92;10.23;;;17.20;99.90;;;;;;5078546;28;20067;-64
2022/12/21 12:14:21;;;;;;;20.38;10.05;;;17.20;99.90;;;;;;5085209;28;20036;-64
2022/12/21 12:16:59;;;;;;;22.20;10.02;;;17.20;99.90;;;;;;5092606;28;20040;-64
2022/12/21 12:19:35;;;;;;;21.83;10.30;;;17.60;99.90;;;;;;5084192;28;20048;-64
2022/12/21 12:22:33;;;;;;;17.30;10.25;;;17.90;99.90;;;;;;5086977;28;20055;-64
2022/12/21 12:25:30;;;;;;;18.42;9.73;;;17.80;99.90;;;;;;5086336;28;20506;-64
2022/12/21 12:28:12;;;;;;;18.05;9.35;;;17.70;99.90;;;;;;5061255;28;20048;-64
2022/12/21 12:30:52;;;;;;;18.92;9.82;;;18.10;99.90;;;;;;5083362;28;20051;-65
2022/12/21 12:33:28;;;;;;;25.67;9.77;;;18.10;99.90;;;;;;5083795;28;20044;-64
2022/12/21 12:36:03;;;;;;;22.35;9.32;;;18.10;99.90;;;;;;5082858;28;20101;-64
2022/12/21 12:38:37;;;;;;;21.15;10.38;;;18.00;99.90;;;;;;5099836;27;20047;-64
2022/12/21 12:41:23;;;;;;;18.55;9.70;;;17.70;99.90;;;;;;5103021;27;20505;-64
2022/12/21 12:43:56;;;;;;;24.20;9.40;;;17.40;99.90;;;;;;5103044;27;20051;-64
2022/12/21 12:46:45;;;;;;;19.60;9.40;;;17.90;99.90;;;;;;5121731;27;20442;-64
2022/12/21 12:49:23;;;;;;;22.92;9.52;;;17.30;99.90;;;;;;5121087;27;20069;-64
2022/12/21 12:52:02;;;;;;;23.90;9.90;;;17.20;99.90;;;;;;5120930;27;20039;-65
2022/12/21 12:54:39;;;;;;;18.35;9.15;;;16.80;99.90;;;;;;5102567;27;20495;-65
2022/12/21 12:57:12;;;;;;;20.10;9.38;;;16.90;99.90;;;;;;5103633;27;20051;-65
2022/12/21 12:59:45;;;;;;;22.55;10.75;;;16.50;99.90;;;;;;5104134;27;20487;-65